Time;durP1;ratioP1;P1;durP2;ratioP2;P2;SDS_P1;SDS_P2;PMS_P1;PMS_P2;Temp;Humidity;BMP_temperature;BMP_pressure;BME280_temperature;BME280_humidity;BME280_pressure;Samples;Min_cycle;Max_cycle;Signal;HPM_P1;HPM_P2
2022/01/13 00:01:16;;;;;;;18.40;14.13;;;3.90;1.00;4.60;102865.00;;;;5008101;28;20480;-77
2022/01/13 00:03:45;;;;;;;15.70;13.10;;;3.90;1.00;4.80;102868.00;;;;5011208;28;20511;-78
2022/01/13 00:06:14;;;;;;;17.67;13.60;;;3.90;1.00;4.80;102861.00;;;;5009379;28;20460;-77
2022/01/13 00:08:42;;;;;;;18.80;14.23;;;4.00;1.00;4.80;102869.00;;;;5011950;28;20465;-77
2022/01/13 00:11:10;;;;;;;17.83;14.63;;;4.10;1.00;4.70;102870.00;;;;5009733;28;20989;-78
2022/01/13 00:13:48;;;;;;;15.93;13.50;;;4.20;1.00;4.60;102855.00;;;;5007776;28;20453;-77
2022/01/13 00:16:37;;;;;;;17.70;15.10;;;4.10;1.00;4.60;102855.00;;;;5013621;28;20449;-77
2022/01/13 00:19:18;;;;;;;18.10;14.60;;;4.00;1.00;4.50;102843.00;;;;5011436;28;20485;-77
2022/01/13 00:21:58;;;;;;;17.57;15.03;;;3.90;1.00;4.50;102842.00;;;;5012751;28;20469;-77
2022/01/13 00:24:26;;;;;;;17.73;15.60;;;3.90;1.00;4.60;102849.00;;;;5014665;28;20544;-77
2022/01/13 00:26:55;;;;;;;18.60;15.90;;;3.90;1.00;4.70;102862.00;;;;5012834;28;20464;-77
2022/01/13 00:29:30;;;;;;;18.47;15.30;;;3.90;1.00;4.70;102855.00;;;;5012871;28;20449;-77
2022/01/13 00:32:00;;;;;;;18.83;14.87;;;4.10;1.00;4.70;102856.00;;;;5013571;28;21177;-77
2022/01/13 00:34:29;;;;;;;18.20;14.60;;;4.10;1.00;4.70;102848.00;;;;5012963;28;20484;-78
2022/01/13 00:36:58;;;;;;;17.87;15.20;;;4.30;1.00;4.70;102864.00;;;;5017589;28;20464;-78
2022/01/13 00:39:27;;;;;;;17.43;14.43;;;4.00;1.00;217.30;158707.00;;;;5019925;28;20484;-78
2022/01/13 00:41:55;;;;;;;19.03;16.77;;;4.10;1.00;4.80;102871.00;;;;5019509;28;20473;-78
2022/01/13 00:44:23;;;;;;;17.90;14.40;;;4.20;1.00;4.70;102864.00;;;;5020414;28;20457;-77
2022/01/13 00:46:58;;;;;;;18.90;15.20;;;4.20;1.00;4.70;102864.00;;;;5019222;28;20524;-77
2022/01/13 00:49:28;;;;;;;20.63;15.93;;;4.20;1.00;217.30;158687.00;;;;5033636;28;20452;-78
2022/01/13 00:51:57;;;;;;;21.30;15.63;;;4.20;1.00;4.80;102883.00;;;;5014714;28;20992;-78
2022/01/13 00:54:28;;;;;;;19.60;15.27;;;4.30;1.00;4.80;102869.00;;;;5021815;28;20476;-77
2022/01/13 00:56:56;;;;;;;17.67;14.90;;;4.30;1.00;4.80;102864.00;;;;5013900;28;20453;-78
2022/01/13 00:59:24;;;;;;;25.23;16.87;;;4.20;1.00;4.80;102870.00;;;;5015118;28;20457;-77
2022/01/13 01:01:54;;;;;;;19.67;15.07;;;4.30;1.00;4.80;102884.00;;;;5011366;28;20500;-77
2022/01/13 01:04:24;;;;;;;18.93;16.93;;;4.10;1.00;4.80;102874.00;;;;5012222;28;20460;-77
2022/01/13 01:06:54;;;;;;;19.83;16.60;;;4.10;1.00;217.30;158796.00;;;;5020129;28;20495;-77
2022/01/13 01:09:34;;;;;;;21.43;15.90;;;4.10;1.00;4.90;102888.00;;;;5013255;28;20464;-78
2022/01/13 01:12:03;;;;;;;19.17;16.23;;;4.20;1.00;4.90;102880.00;;;;5013700;28;20847;-78
2022/01/13 01:14:35;;;;;;;20.33;15.63;;;4.20;1.00;4.80;102874.00;;;;5012686;28;20477;-79
2022/01/13 01:17:06;;;;;;;19.97;16.90;;;4.20;1.00;4.80;102865.00;;;;5013828;28;21973;-78
2022/01/13 01:19:40;;;;;;;20.33;16.20;;;4.10;1.00;4.90;102884.00;;;;5013830;28;20489;-78
2022/01/13 01:22:38;;;;;;;18.23;15.93;;;4.20;1.00;4.90;102887.00;;;;5022823;28;20863;-78
2022/01/13 01:27:52;;;;;;;20.80;16.07;;;4.20;1.00;4.80;102886.00;;;;5003628;28;20452;-78
2022/01/13 01:30:29;;;;;;;20.80;17.00;;;4.20;1.00;4.70;102887.00;;;;5013304;28;20510;-78
2022/01/13 01:32:58;;;;;;;19.07;15.90;;;4.10;1.00;4.70;102896.00;;;;5013154;28;20452;-78
2022/01/13 01:35:27;;;;;;;20.93;16.30;;;4.10;1.00;4.70;102889.00;;;;5012570;28;20485;-77
2022/01/13 01:37:57;;;;;;;24.20;18.80;;;4.10;1.00;4.60;102897.00;;;;5015030;28;20463;-78
2022/01/13 01:40:25;;;;;;;22.60;17.37;;;4.10;1.00;4.60;102888.00;;;;5014128;28;20461;-77
2022/01/13 01:42:54;;;;;;;22.30;19.07;;;4.10;1.00;4.60;102887.00;;;;5014012;28;20484;-77
2022/01/13 01:45:25;;;;;;;24.10;18.87;;;4.00;1.00;4.70;102885.00;;;;5014480;28;20559;-78
2022/01/13 01:47:54;;;;;;;21.27;16.77;;;4.00;1.00;4.80;102882.00;;;;5014417;28;20459;-78
2022/01/13 01:50:24;;;;;;;24.40;18.30;;;4.10;1.00;4.80;102875.00;;;;5010715;28;20461;-78
2022/01/13 01:52:54;;;;;;;20.07;17.43;;;4.10;1.00;4.90;102852.00;;;;5014266;28;20461;-77
2022/01/13 01:55:23;;;;;;;21.40;18.30;;;4.10;1.00;217.30;158780.00;;;;5012327;28;20880;-77
2022/01/13 01:57:57;;;;;;;21.80;17.93;;;4.10;1.00;4.80;102867.00;;;;5019938;28;20445;-77
2022/01/13 02:00:27;;;;;;;22.53;18.47;;;4.20;1.00;4.90;102871.00;;;;5033221;28;20475;-78
2022/01/13 02:02:56;;;;;;;18.10;15.40;;;4.20;1.00;4.90;102865.00;;;;5022249;28;20511;-77
2022/01/13 02:05:24;;;;;;;21.43;17.47;;;4.10;1.00;4.90;102854.00;;;;5029552;28;20453;-77
2022/01/13 02:07:53;;;;;;;18.33;15.80;;;4.10;1.00;4.90;102863.00;;;;5042356;28;20488;-78
2022/01/13 02:10:23;;;;;;;19.27;16.70;;;4.00;1.00;5.00;102861.00;;;;5029098;28;20468;-77
2022/01/13 02:13:00;;;;;;;21.27;17.57;;;4.10;1.00;5.00;102686.00;;;;5015986;28;20554;-76
2022/01/13 02:15:34;;;;;;;22.40;17.63;;;4.20;1.00;5.10;102868.00;;;;5011576;28;20579;-77
2022/01/13 02:18:07;;;;;;;24.30;18.33;;;4.20;1.00;5.10;102859.00;;;;5015113;28;20464;-78
2022/01/13 02:20:51;;;;;;;20.77;18.20;;;4.20;1.00;5.20;102852.00;;;;5010609;28;20494;-77
2022/01/13 02:23:37;;;;;;;21.63;18.20;;;4.40;1.00;5.30;102852.00;;;;5009464;28;20456;-77
2022/01/13 02:26:09;;;;;;;21.93;18.27;;;4.60;1.00;5.30;102851.00;;;;5006435;28;20458;-77
2022/01/13 02:28:39;;;;;;;25.30;19.03;;;4.60;1.00;5.30;102863.00;;;;5008091;28;20461;-77
2022/01/13 02:31:08;;;;;;;19.33;16.83;;;4.70;1.00;5.30;102851.00;;;;5007197;28;20494;-77
2022/01/13 02:33:36;;;;;;;22.10;18.60;;;4.70;1.00;5.40;102856.00;;;;5005955;28;20981;-78
2022/01/13 02:36:08;;;;;;;23.17;18.70;;;4.90;1.00;5.40;67441.00;;;;5009951;28;20488;-77
2022/01/13 02:38:37;;;;;;;20.60;17.87;;;4.70;1.00;5.40;102859.00;;;;5010715;28;20463;-77
2022/01/13 02:41:05;;;;;;;21.73;18.83;;;4.70;1.00;217.30;159002.00;;;;5008799;28;20477;-77
2022/01/13 02:43:34;;;;;;;25.37;18.90;;;4.70;1.00;5.40;102863.00;;;;5008225;28;20457;-77
2022/01/13 02:46:18;;;;;;;22.47;18.13;;;4.70;1.00;5.30;102871.00;;;;5007757;28;20907;-77
2022/01/13 02:48:48;;;;;;;23.00;18.37;;;4.60;1.00;5.30;102862.00;;;;5009641;28;20456;-76
2022/01/13 02:51:19;;;;;;;22.23;18.00;;;4.40;1.00;5.30;102862.00;;;;5007443;28;20493;-78
2022/01/13 02:53:47;;;;;;;20.20;16.47;;;4.40;1.00;5.30;102866.00;;;;5009145;28;20457;-77
2022/01/13 02:56:16;;;;;;;22.10;16.03;;;4.40;1.00;5.20;102867.00;;;;5015937;28;20480;-76
2022/01/13 02:58:45;;;;;;;17.70;15.07;;;4.30;1.00;5.30;102860.00;;;;5016979;28;20469;-76
2022/01/13 03:01:14;;;;;;;22.50;18.43;;;4.40;1.00;5.40;102872.00;;;;5042389;28;20499;-77
2022/01/13 03:03:44;;;;;;;21.30;17.50;;;4.50;1.00;5.40;102864.00;;;;5021615;28;20942;-77
2022/01/13 03:06:15;;;;;;;20.90;18.50;;;4.70;1.00;5.40;102857.00;;;;5017173;28;20460;-77
2022/01/13 03:08:48;;;;;;;19.77;17.30;;;4.80;1.00;5.50;102853.00;;;;5011178;28;20461;-77
2022/01/13 03:11:17;;;;;;;24.17;17.40;;;4.80;1.00;5.40;102859.00;;;;5012266;28;20490;-77
2022/01/13 03:13:45;;;;;;;20.33;17.67;;;4.80;1.00;5.50;102841.00;;;;5035097;28;20464;-77
2022/01/13 03:16:15;;;;;;;19.03;16.60;;;4.80;1.00;5.50;102847.00;;;;5015314;28;20539;-78
2022/01/13 03:18:45;;;;;;;18.87;15.97;;;4.80;1.00;5.60;102618.00;;;;5015465;28;20462;-78
2022/01/13 03:21:13;;;;;;;15.80;13.67;;;4.90;1.00;5.60;102845.00;;;;5014431;28;20480;-76
2022/01/13 03:23:42;;;;;;;18.20;13.87;;;5.10;1.00;5.70;102839.00;;;;5011496;28;20476;-77
2022/01/13 03:26:12;;;;;;;20.60;16.47;;;5.10;1.00;5.60;102851.00;;;;5013590;28;20511;-78
2022/01/13 03:28:51;;;;;;;19.27;15.37;;;5.00;1.00;5.70;102842.00;;;;5011951;28;20454;-77
2022/01/13 03:31:21;;;;;;;19.27;16.27;;;5.10;1.00;5.60;102851.00;;;;5013622;28;21009;-78
2022/01/13 03:33:53;;;;;;;22.50;19.33;;;5.10;1.00;5.50;102857.00;;;;5016079;28;21347;-78
2022/01/13 03:36:21;;;;;;;23.77;21.13;;;5.10;1.00;5.50;102859.00;;;;5007808;28;20488;-78
2022/01/13 03:38:51;;;;;;;22.33;18.87;;;5.00;1.00;5.50;102807.00;;;;5016183;28;20859;-78
2022/01/13 03:41:22;;;;;;;23.40;20.83;;;5.00;1.00;5.50;102850.00;;;;5010465;28;20551;-77
2022/01/13 03:43:53;;;;;;;19.17;17.17;;;5.00;1.00;5.60;102852.00;;;;5010988;28;20460;-77
2022/01/13 03:46:22;;;;;;;23.67;20.97;;;5.10;1.00;5.50;102859.00;;;;5010852;28;20545;-77
2022/01/13 03:48:50;;;;;;;27.03;21.60;;;4.90;1.00;5.50;102854.00;;;;5008836;28;20492;-77
2022/01/13 03:51:18;;;;;;;23.13;19.83;;;4.80;1.00;217.30;159044.00;;;;5006434;28;21262;-77
2022/01/13 03:55:13;;;;;;;22.87;19.07;;;4.80;1.00;5.60;102867.00;;;;5010860;28;20467;-78
2022/01/13 03:58:46;;;;;;;23.33;19.97;;;5.00;1.00;5.60;102859.00;;;;5013293;28;20483;-77
2022/01/13 04:02:00;;;;;;;25.00;20.13;;;5.10;1.00;5.70;102846.00;;;;4994193;28;20492;-77
2022/01/13 04:04:30;;;;;;;24.07;19.83;;;5.20;1.00;5.70;102847.00;;;;5012522;28;21082;-77
2022/01/13 04:07:15;;;;;;;27.63;20.47;;;5.20;1.00;5.80;67551.00;;;;5015661;28;20464;-77
2022/01/13 04:10:41;;;;;;;26.27;19.73;;;5.30;1.00;5.80;102841.00;;;;5010598;28;20832;-77
2022/01/13 04:13:22;;;;;;;25.73;19.57;;;5.30;1.00;5.80;102834.00;;;;5004719;28;20469;-78
2022/01/13 04:15:51;;;;;;;21.20;18.57;;;5.10;1.00;5.80;102839.00;;;;5021320;28;20456;-78
2022/01/13 04:18:19;;;;;;;21.50;18.60;;;5.10;1.00;5.90;102846.00;;;;5019944;28;20446;-77
2022/01/13 04:20:47;;;;;;;22.57;19.00;;;5.30;1.00;5.90;102842.00;;;;5018251;28;20485;-77
2022/01/13 04:23:16;;;;;;;24.13;19.50;;;5.40;1.00;6.00;102847.00;;;;5022041;28;20472;-78
2022/01/13 04:25:44;;;;;;;21.93;19.57;;;5.40;1.00;6.00;102844.00;;;;5025164;28;20476;-78
2022/01/13 04:28:14;;;;;;;22.00;19.63;;;5.50;1.00;6.00;102831.00;;;;5031431;28;20996;-77
2022/01/13 04:30:48;;;;;;;23.53;19.27;;;5.50;1.00;6.00;102829.00;;;;5021584;28;20485;-77
2022/01/13 04:33:17;;;;;;;21.87;18.97;;;5.40;1.00;5.90;102822.00;;;;5027140;28;20614;-78
2022/01/13 04:35:46;;;;;;;22.40;19.10;;;5.40;1.00;5.90;102819.00;;;;5031030;28;20465;-77
2022/01/13 04:38:14;;;;;;;24.37;20.03;;;5.40;1.00;5.90;102819.00;;;;5045283;28;20480;-77
2022/01/13 04:40:47;;;;;;;22.37;18.83;;;5.30;1.00;5.80;102822.00;;;;5025280;28;20472;-77
2022/01/13 04:43:17;;;;;;;22.43;18.23;;;5.20;1.00;5.60;102829.00;;;;5018846;28;20504;-78
2022/01/13 04:45:45;;;;;;;19.40;15.57;;;5.10;1.00;5.60;102828.00;;;;5017604;28;20492;-78
2022/01/13 04:48:13;;;;;;;21.77;18.33;;;5.20;1.00;5.60;102824.00;;;;5015244;28;20460;-78
2022/01/13 04:50:42;;;;;;;18.40;16.37;;;5.00;1.00;5.50;102806.00;;;;5014025;28;21032;-78
2022/01/13 04:53:11;;;;;;;17.83;15.13;;;4.90;1.00;5.40;102758.00;;;;5014447;28;20464;-78
2022/01/13 04:55:49;;;;;;;19.50;16.17;;;4.90;1.00;5.40;102827.00;;;;5018206;28;20552;-78
2022/01/13 04:58:21;;;;;;;21.40;18.50;;;4.80;1.00;5.50;67460.00;;;;5014952;28;20528;-78
2022/01/13 05:00:50;;;;;;;25.87;19.33;;;4.80;1.00;5.40;102828.00;;;;5021852;28;20832;-77
2022/01/13 05:03:18;;;;;;;27.00;21.23;;;4.80;1.00;5.40;102836.00;;;;5014098;28;20453;-77
2022/01/13 05:05:46;;;;;;;21.30;16.33;;;4.80;1.00;5.40;102836.00;;;;5015206;28;20452;-77
2022/01/13 05:08:15;;;;;;;23.60;19.30;;;4.90;1.00;52.70;158986.00;;;;5016505;28;20465;-77
2022/01/13 05:10:43;;;;;;;25.53;20.90;;;4.80;1.00;5.40;102835.00;;;;5014249;28;20487;-77
2022/01/13 05:13:12;;;;;;;25.50;20.90;;;4.80;1.00;217.30;158996.00;;;;5014712;28;20465;-77
2022/01/13 05:15:44;;;;;;;26.07;21.50;;;4.80;1.00;5.40;102844.00;;;;5020736;28;20483;-77
2022/01/13 05:18:23;;;;;;;24.90;21.40;;;4.80;1.00;5.40;102850.00;;;;5019099;28;20474;-77
2022/01/13 05:20:58;;;;;;;28.03;21.57;;;4.80;1.00;5.40;102861.00;;;;5026514;28;20480;-77
2022/01/13 05:23:27;;;;;;;32.23;23.60;;;4.80;1.00;5.30;102847.00;;;;5030809;28;20456;-77
2022/01/13 05:25:55;;;;;;;25.83;20.23;;;4.80;1.00;5.30;102837.00;;;;5023548;28;20794;-78
2022/01/13 05:28:23;;;;;;;24.33;19.70;;;4.70;1.00;5.30;102826.00;;;;5019479;28;20456;-78
2022/01/13 05:30:54;;;;;;;25.30;21.10;;;4.70;1.00;5.30;102859.00;;;;5025070;28;20487;-79
2022/01/13 05:33:22;;;;;;;22.97;18.87;;;4.70;1.00;5.30;102842.00;;;;5020482;28;20512;-77
2022/01/13 05:35:51;;;;;;;21.90;16.40;;;4.70;1.00;5.30;102841.00;;;;5031457;28;20470;-78
2022/01/13 05:38:19;;;;;;;18.30;14.23;;;4.70;1.00;5.30;102847.00;;;;5016809;28;20484;-77
2022/01/13 05:40:48;;;;;;;18.93;15.20;;;4.70;1.00;5.30;102843.00;;;;5020081;28;21047;-77
2022/01/13 05:43:16;;;;;;;23.83;18.63;;;4.70;1.00;5.30;102847.00;;;;5025008;28;20464;-77
2022/01/13 05:45:44;;;;;;;22.37;18.40;;;4.70;1.00;5.30;102851.00;;;;5036445;28;20428;-77
2022/01/13 05:48:14;;;;;;;27.43;18.17;;;4.70;1.00;5.20;102850.00;;;;5040468;28;20464;-78
2022/01/13 05:50:42;;;;;;;20.60;17.33;;;4.60;1.00;5.20;102854.00;;;;5023583;28;20468;-78
2022/01/13 05:53:10;;;;;;;23.77;19.07;;;4.60;1.00;5.10;102853.00;;;;5026184;28;20483;-77
2022/01/13 05:55:39;;;;;;;19.50;16.27;;;4.50;1.00;5.00;102866.00;;;;5017352;28;20528;-78
2022/01/13 05:58:08;;;;;;;20.70;15.77;;;4.40;1.00;5.00;102865.00;;;;5021642;28;20489;-76
2022/01/13 06:00:36;;;;;;;21.73;16.67;;;4.40;1.00;5.00;102868.00;;;;5028827;28;20485;-78
2022/01/13 06:03:06;;;;;;;19.00;16.17;;;4.40;1.00;5.10;102866.00;;;;5028466;28;20469;-77
2022/01/13 06:05:35;;;;;;;23.10;17.67;;;4.50;1.00;5.20;102865.00;;;;5027829;28;20457;-78
2022/01/13 06:08:05;;;;;;;21.47;17.50;;;4.50;1.00;5.20;67404.00;;;;5036309;28;20457;-77
2022/01/13 06:10:38;;;;;;;19.47;15.87;;;4.60;1.00;5.20;102868.00;;;;5026831;28;20483;-79
2022/01/13 06:13:06;;;;;;;17.60;15.10;;;4.50;1.00;5.20;102858.00;;;;5021760;28;20460;-77
2022/01/13 06:15:37;;;;;;;20.43;16.00;;;4.60;1.00;5.20;102864.00;;;;5020093;28;20456;-77
2022/01/13 06:18:13;;;;;;;20.37;16.97;;;4.60;1.00;5.10;102870.00;;;;5018787;28;20483;-78
2022/01/13 06:20:48;;;;;;;18.27;15.03;;;4.50;1.00;217.30;158895.00;;;;5023672;28;20704;-79
2022/01/13 06:23:18;;;;;;;18.83;15.90;;;4.50;1.00;5.10;102876.00;;;;5016023;28;20537;-77
2022/01/13 06:25:46;;;;;;;18.90;14.57;;;4.50;1.00;5.10;102860.00;;;;5015465;28;20465;-77
2022/01/13 06:28:14;;;;;;;19.33;16.40;;;4.60;1.00;5.10;102854.00;;;;5019292;28;20468;-77
2022/01/13 06:30:43;;;;;;;18.50;15.97;;;4.50;1.00;5.10;102859.00;;;;5019797;28;20495;-78
2022/01/13 06:33:11;;;;;;;20.10;15.50;;;4.50;1.00;5.20;67404.00;;;;5020236;28;20482;-78
2022/01/13 06:35:39;;;;;;;22.00;15.83;;;4.60;1.00;5.20;102871.00;;;;5020565;28;20469;-77
2022/01/13 06:38:09;;;;;;;20.40;17.00;;;4.60;1.00;5.00;102847.00;;;;5032581;28;20504;-77
2022/01/13 06:40:38;;;;;;;18.10;14.83;;;4.50;1.00;5.00;102864.00;;;;5025995;28;20488;-78
2022/01/13 06:43:06;;;;;;;16.60;14.80;;;4.20;1.00;5.00;67352.00;;;;5019289;28;20456;-78
2022/01/13 06:45:34;;;;;;;19.17;16.13;;;4.40;1.00;5.00;102876.00;;;;5015412;28;20457;-78
2022/01/13 06:48:03;;;;;;;18.30;15.77;;;4.40;1.00;5.00;102863.00;;;;5014437;28;20461;-77
2022/01/13 06:50:31;;;;;;;20.20;16.43;;;4.40;1.00;5.10;102849.00;;;;5015835;28;20465;-77
2022/01/13 06:53:00;;;;;;;19.43;17.33;;;4.50;1.00;5.10;102862.00;;;;5012501;28;20959;-78
2022/01/13 06:55:29;;;;;;;21.80;17.30;;;4.50;1.00;5.10;102865.00;;;;5011413;28;20454;-77
2022/01/13 06:57:58;;;;;;;22.27;18.10;;;4.50;1.00;5.20;102867.00;;;;5012198;28;20990;-75
2022/01/13 07:00:26;;;;;;;18.93;15.93;;;4.50;1.00;5.20;102792.00;;;;5013226;28;20461;-77
2022/01/13 07:02:58;;;;;;;19.93;15.70;;;4.60;1.00;5.10;102867.00;;;;5012702;28;20465;-77
2022/01/13 07:05:26;;;;;;;19.43;17.07;;;4.50;1.00;5.00;102763.00;;;;5015469;28;20484;-77
2022/01/13 07:07:55;;;;;;;24.13;18.07;;;4.40;1.00;5.10;102870.00;;;;5014918;28;20472;-77
2022/01/13 07:10:23;;;;;;;20.27;17.27;;;4.40;1.00;5.00;67378.00;;;;5014855;28;20481;-76
2022/01/13 07:12:53;;;;;;;23.23;17.50;;;4.40;1.00;217.30;158826.00;;;;5020167;28;20443;-77
2022/01/13 07:15:22;;;;;;;19.57;16.37;;;4.40;1.00;5.00;102784.00;;;;5022281;28;20520;-77
2022/01/13 07:17:51;;;;;;;22.53;18.33;;;4.50;1.00;4.90;102747.00;;;;5021537;28;20509;-78
2022/01/13 07:20:19;;;;;;;20.97;18.07;;;4.30;1.00;4.80;102772.00;;;;5021353;28;20472;-78
2022/01/13 07:22:47;;;;;;;22.87;19.10;;;4.20;1.00;4.70;102766.00;;;;5017243;28;20467;-77
2022/01/13 07:25:16;;;;;;;26.90;19.43;;;4.10;1.00;4.80;102778.00;;;;5015103;28;20555;-78
2022/01/13 07:27:44;;;;;;;23.47;18.83;;;4.10;1.00;4.80;102885.00;;;;5017471;28;20824;-76
2022/01/13 07:30:14;;;;;;;23.10;19.57;;;4.30;1.00;4.90;102887.00;;;;5014207;28;20463;-77
2022/01/13 07:32:42;;;;;;;24.50;21.30;;;4.30;1.00;5.00;102878.00;;;;5020704;28;20597;-76
2022/01/13 07:35:12;;;;;;;24.57;20.33;;;4.40;1.00;5.00;102868.00;;;;5015178;28;21057;-78
2022/01/13 07:37:42;;;;;;;24.50;19.17;;;4.40;1.00;217.30;158790.00;;;;5014316;28;20477;-78
2022/01/13 07:40:15;;;;;;;24.60;19.80;;;4.40;1.00;4.80;102879.00;;;;5015250;28;20523;-78
2022/01/13 07:42:44;;;;;;;21.97;18.33;;;4.20;1.00;4.80;67311.00;;;;5012047;28;20553;-78
2022/01/13 07:45:16;;;;;;;22.47;18.40;;;4.20;1.00;4.70;102765.00;;;;5013191;28;20841;-78
2022/01/13 07:47:44;;;;;;;22.60;18.70;;;4.10;1.00;4.70;102764.00;;;;5012791;28;21025;-78
2022/01/13 07:50:15;;;;;;;22.60;19.30;;;4.10;1.00;4.70;102741.00;;;;5012886;28;20458;-78
2022/01/13 07:52:44;;;;;;;23.33;18.73;;;4.10;1.00;4.70;102738.00;;;;5013208;28;20823;-77
2022/01/13 07:55:14;;;;;;;22.37;19.00;;;4.10;1.00;4.60;102858.00;;;;5010877;28;20962;-77
2022/01/13 07:57:42;;;;;;;22.03;18.47;;;4.00;1.00;4.70;102907.00;;;;5013591;28;20539;-76
2022/01/13 08:00:15;;;;;;;25.60;20.20;;;4.10;1.00;52.70;158726.00;;;;5016868;28;20489;-77
2022/01/13 08:02:43;;;;;;;25.00;20.00;;;4.10;1.00;4.80;102906.00;;;;5013258;28;20452;-78
2022/01/13 08:05:12;;;;;;;25.37;21.37;;;4.20;1.00;4.80;102904.00;;;;5011101;28;20462;-78
2022/01/13 08:07:40;;;;;;;26.27;21.73;;;4.20;1.00;4.90;102884.00;;;;5011893;28;20476;-78
2022/01/13 08:10:10;;;;;;;26.20;20.20;;;4.30;1.00;4.90;67328.00;;;;5013434;28;21214;-78
2022/01/13 08:12:39;;;;;;;28.13;21.37;;;4.30;1.00;4.90;102881.00;;;;5011118;28;20470;-78
2022/01/13 08:15:13;;;;;;;22.37;19.70;;;4.30;1.00;4.90;102866.00;;;;5015492;28;20457;-78
2022/01/13 08:20:30;;;;;;;25.13;19.40;;;4.20;1.00;4.80;102865.00;;;;5014309;28;20995;-78
2022/01/13 08:22:59;;;;;;;22.70;20.23;;;4.40;1.00;5.00;102902.00;;;;5011213;28;20949;-78
2022/01/13 08:25:31;;;;;;;21.77;19.33;;;4.30;1.00;5.00;102875.00;;;;5027860;28;20661;-78
2022/01/13 08:28:00;;;;;;;26.90;20.20;;;4.40;1.00;5.10;102888.00;;;;5012680;28;20696;-78
2022/01/13 08:30:40;;;;;;;22.90;19.80;;;4.50;1.00;5.10;102865.00;;;;5018770;28;20504;-79
2022/01/13 08:33:09;;;;;;;23.87;19.67;;;4.50;1.00;5.10;102888.00;;;;5015761;28;20507;-79
2022/01/13 08:35:43;;;;;;;23.10;19.80;;;4.50;1.00;5.20;102895.00;;;;5019887;28;20456;-78
2022/01/13 08:38:16;;;;;;;21.87;18.77;;;4.60;1.00;5.30;102871.00;;;;5019031;28;20496;-78
2022/01/13 08:40:45;;;;;;;22.77;20.07;;;4.70;1.00;5.30;102869.00;;;;5027523;28;20484;-78
2022/01/13 08:43:13;;;;;;;21.93;19.20;;;4.70;1.00;5.40;102872.00;;;;5017818;28;20460;-77
2022/01/13 08:45:42;;;;;;;24.00;19.10;;;4.80;1.00;5.50;102874.00;;;;5014128;28;20472;-77
2022/01/13 08:48:12;;;;;;;23.47;20.13;;;4.80;1.00;5.50;102683.00;;;;5017068;28;20537;-78
2022/01/13 08:50:41;;;;;;;23.73;20.23;;;4.90;1.00;5.60;102671.00;;;;5013248;28;20522;-77
2022/01/13 08:53:09;;;;;;;23.97;19.57;;;5.00;1.00;5.70;102876.00;;;;5035486;28;20511;-78
2022/01/13 08:55:38;;;;;;;22.17;19.63;;;5.00;1.00;5.70;102880.00;;;;5015477;28;20491;-78
2022/01/13 08:58:06;;;;;;;23.60;19.00;;;5.10;1.00;5.70;102891.00;;;;5037177;28;20452;-77
2022/01/13 09:00:37;;;;;;;22.20;18.03;;;5.10;1.00;5.60;102896.00;;;;5022021;28;20600;-77
2022/01/13 09:03:09;;;;;;;20.83;18.30;;;5.00;1.00;5.50;102862.00;;;;5032847;28;20436;-76
2022/01/13 09:05:40;;;;;;;26.77;20.87;;;4.90;1.00;5.50;102843.00;;;;5045749;28;20448;-77
2022/01/13 09:08:11;;;;;;;23.23;19.67;;;5.00;1.00;5.60;102868.00;;;;5043488;28;20454;-78
2022/01/13 09:10:42;;;;;;;20.33;17.60;;;5.00;1.00;217.30;159117.00;;;;5020977;28;20476;-77
2022/01/13 09:13:14;;;;;;;23.00;18.87;;;5.10;1.00;5.70;102899.00;;;;5017628;28;20468;-78
2022/01/13 09:15:49;;;;;;;21.03;18.20;;;5.10;1.00;5.70;102890.00;;;;5013894;28;20458;-76
2022/01/13 09:18:31;;;;;;;23.80;19.57;;;5.20;1.00;5.70;102895.00;;;;5016273;28;21142;-77
2022/01/13 09:21:06;;;;;;;24.00;21.40;;;5.30;1.00;5.60;102897.00;;;;5021924;28;20477;-77
2022/01/13 09:23:36;;;;;;;24.60;21.30;;;5.20;1.00;5.60;102876.00;;;;5013724;28;20465;-79
2022/01/13 09:26:06;;;;;;;22.07;19.80;;;5.10;1.00;5.70;102885.00;;;;5022497;28;20460;-77
2022/01/13 09:28:35;;;;;;;26.70;20.97;;;5.20;1.00;5.80;102776.00;;;;5036527;28;20450;-77
2022/01/13 09:31:04;;;;;;;21.80;17.70;;;5.20;1.00;5.80;102899.00;;;;5017179;28;20508;-78
2022/01/13 09:33:33;;;;;;;22.60;18.33;;;5.20;1.00;5.80;102820.00;;;;5014203;28;20513;-76
2022/01/13 09:36:03;;;;;;;19.53;17.13;;;5.20;1.00;5.80;102709.00;;;;5014659;28;20559;-77
2022/01/13 09:38:33;;;;;;;23.37;17.07;;;5.20;1.00;5.60;102659.00;;;;5014578;28;20471;-77
2022/01/13 09:41:02;;;;;;;20.57;17.80;;;5.10;1.00;5.70;102697.00;;;;5022060;28;20556;-78
2022/01/13 09:43:31;;;;;;;20.83;18.07;;;5.10;1.00;5.70;102694.00;;;;5028518;28;20982;-78
2022/01/13 09:46:00;;;;;;;18.23;16.33;;;5.10;1.00;5.80;102915.00;;;;5018416;28;20469;-78
2022/01/13 09:48:30;;;;;;;22.13;18.10;;;5.20;1.00;5.90;102915.00;;;;5013091;28;20456;-77
2022/01/13 09:50:59;;;;;;;21.93;17.73;;;5.30;1.00;6.00;102914.00;;;;5013446;28;20478;-77
2022/01/13 09:53:27;;;;;;;21.67;18.47;;;5.40;1.00;6.00;102937.00;;;;5014287;28;21140;-78
2022/01/13 09:55:57;;;;;;;23.53;18.03;;;5.40;1.00;6.10;102912.00;;;;5018673;28;21403;-78
2022/01/13 09:58:25;;;;;;;22.17;19.80;;;5.50;1.00;6.20;102689.00;;;;5018145;28;20854;-77
2022/01/13 10:00:54;;;;;;;23.07;20.57;;;5.60;1.00;6.30;102937.00;;;;5014582;28;20495;-78
2022/01/13 10:03:26;;;;;;;22.10;19.90;;;5.70;1.00;6.40;102725.00;;;;5013216;28;20492;-78
2022/01/13 10:05:58;;;;;;;23.33;20.90;;;5.90;1.00;6.40;102721.00;;;;5014277;28;20460;-76
2022/01/13 10:08:44;;;;;;;25.70;22.90;;;5.80;1.00;217.30;159488.00;;;;5013653;28;20533;-77
2022/01/13 10:11:34;;;;;;;22.20;19.80;;;6.00;1.00;6.40;102909.00;;;;5013584;28;20495;-76
2022/01/13 10:16:22;;;;;;;25.23;20.43;;;5.90;1.00;6.30;102717.00;;;;5011420;28;20463;-76
2022/01/13 10:17:05;;;;;;;23.80;20.77;;;5.70;1.00;6.30;102690.00;;;;5014894;28;20464;-76
2022/01/13 10:19:37;;;;;;;24.50;20.20;;;5.70;1.00;6.30;102946.00;;;;5013902;28;20547;-77
2022/01/13 10:22:09;;;;;;;22.10;17.70;;;5.70;1.00;6.40;102768.00;;;;5017609;28;20468;-77
2022/01/13 10:24:39;;;;;;;22.07;18.10;;;5.80;1.00;6.30;102702.00;;;;5017772;28;20843;-76
2022/01/13 10:27:12;;;;;;;25.83;19.50;;;5.80;1.00;6.30;102714.00;;;;5033287;28;20463;-77
2022/01/13 10:29:45;;;;;;;22.17;19.50;;;5.70;1.00;6.40;102695.00;;;;5014466;28;20465;-77
2022/01/13 10:32:17;;;;;;;21.10;18.40;;;5.80;1.00;6.40;102683.00;;;;5015792;28;21081;-77
2022/01/13 10:34:49;;;;;;;24.17;17.50;;;5.80;1.00;6.40;102859.00;;;;5013188;28;20485;-77
2022/01/13 10:37:20;;;;;;;20.90;17.60;;;5.80;1.00;6.50;102702.00;;;;5013439;28;20552;-78
2022/01/13 10:39:57;;;;;;;21.87;18.47;;;5.90;1.00;6.40;102929.00;;;;5016270;28;20480;-77
2022/01/13 10:45:31;;;;;;;20.57;17.60;;;5.90;1.00;6.50;102693.00;;;;5024460;28;20505;-76
2022/01/13 10:48:02;;;;;;;21.40;18.97;;;5.90;1.00;217.30;159488.00;;;;5027521;28;20471;-77
2022/01/13 10:50:34;;;;;;;22.33;19.03;;;5.90;1.00;6.50;102680.00;;;;5025023;28;20465;-77
2022/01/13 10:53:07;;;;;;;19.97;17.60;;;5.90;1.00;6.60;102676.00;;;;5027465;28;20471;-77
2022/01/13 10:55:42;;;;;;;18.50;16.50;;;6.00;1.00;6.60;102682.00;;;;5017995;28;20454;-77
2022/01/13 10:58:16;;;;;;;20.13;17.90;;;6.00;1.00;6.50;102681.00;;;;5017515;28;20452;-77
2022/01/13 11:00:46;;;;;;;21.47;18.27;;;5.90;1.00;6.50;102691.00;;;;5019640;28;20512;-77
2022/01/13 11:03:18;;;;;;;19.97;17.97;;;5.90;1.00;6.50;102690.00;;;;5017912;28;20460;-77
2022/01/13 11:05:55;;;;;;;20.13;17.93;;;5.80;1.00;6.60;102681.00;;;;5021064;28;20475;-77
2022/01/13 11:08:31;;;;;;;19.10;17.20;;;5.90;1.00;6.80;102666.00;;;;5016938;28;20453;-78
2022/01/13 11:11:02;;;;;;;24.27;17.97;;;6.10;1.00;6.80;102663.00;;;;5018360;28;20481;-77
2022/01/13 11:13:38;;;;;;;21.10;18.40;;;6.20;1.00;7.00;102655.00;;;;5021955;28;20449;-77
2022/01/13 11:16:06;;;;;;;20.60;18.40;;;6.30;1.00;7.00;102677.00;;;;5026649;28;20449;-76
2022/01/13 11:18:35;;;;;;;20.73;18.53;;;6.40;1.00;217.30;159754.00;;;;5018835;28;20465;-76
2022/01/13 11:21:04;;;;;;;18.00;15.93;;;6.50;1.00;7.10;67831.00;;;;5015222;28;20489;-77
2022/01/13 11:23:33;;;;;;;17.77;15.97;;;6.50;1.00;7.00;102679.00;;;;5020038;28;20465;-77